Terminal Aerodrome Forecast
Issued by NWS

Home | Current Version | Previous Version | Text Only | Print | Product List | Glossary On
Versions: 1 2 3 4 5 6 7 8 9 10 11 12 13 14 15 16 17 18 19 20 21 22
054
FTUS41 KGYX 261731
TAFRKD
TAF
KRKD 261731Z 2618/2718 12008KT P6SM SKC
     FM270000 13004KT P6SM BKN050 OVC100
     FM270800 13004KT 5SM -FZRASN BR BKN025 OVC050
     FM271400 11011KT 2SM -RA BR OVC015
      AMD LTD TO CLD VIS AND WIND=

USA.gov is the U.S. government's official web portal to all federal, state and local government web resources and services.